Time;durP1;ratioP1;P1;durP2;ratioP2;P2;SDS_P1;SDS_P2;PMS_P1;PMS_P2;Temp;Humidity;BMP_temperature;BMP_pressure;BME280_temperature;BME280_humidity;BME280_pressure;Samples;Min_cycle;Max_cycle;Signal;HPM_P1;HPM_P2
2023/05/15 00:00:30;;;;;;;;;;;;;;;13.72;97.69;98880.31;4462569;32;33813;-79
2023/05/15 00:02:59;;;;;;;;;;;;;;;13.59;96.42;98887.75;4461691;32;33904;-80
2023/05/15 00:05:28;;;;;;;;;;;;;;;14.07;93.97;98881.53;4470426;32;33075;-79
2023/05/15 00:07:56;;;;;;;;;;;;;;;13.88;95.41;98884.00;4461310;32;34415;-81
2023/05/15 00:10:24;;;;;;;;;;;;;;;13.69;96.49;98875.22;4461154;32;34031;-79
2023/05/15 00:12:53;;;;;;;;;;;;;;;14.24;92.30;98880.00;4460624;32;33877;-78
2023/05/15 00:15:22;;;;;;;;;;;;;;;13.91;95.43;98893.47;4462566;32;33430;-79
2023/05/15 00:17:51;;;;;;;;;;;;;;;13.89;95.61;98895.28;4465941;32;33956;-79
2023/05/15 00:20:22;;;;;;;;;;;;;;;14.07;93.31;98896.31;4461211;32;34686;-79
2023/05/15 00:22:50;;;;;;;;;;;;;;;14.43;91.51;98896.59;4461111;32;34104;-79
2023/05/15 00:25:19;;;;;;;;;;;;;;;14.38;92.11;98902.91;4461442;32;33594;-81
2023/05/15 00:27:47;;;;;;;;;;;;;;;14.58;90.22;98910.78;4466610;32;33950;-80
2023/05/15 00:30:15;;;;;;;;;;;;;;;14.63;88.69;98913.19;4460945;32;34637;-79
2023/05/15 00:32:45;;;;;;;;;;;;;;;14.47;89.54;98912.94;4460896;32;34752;-80
2023/05/15 00:35:14;;;;;;;;;;;;;;;14.13;91.81;98911.72;4461329;32;33114;-80
2023/05/15 00:37:42;;;;;;;;;;;;;;;13.86;94.90;98905.84;4466231;32;34328;-82
2023/05/15 00:40:11;;;;;;;;;;;;;;;13.58;97.73;98899.09;4470228;32;34905;-79
2023/05/15 00:42:40;;;;;;;;;;;;;;;13.71;98.28;98898.63;4461133;32;36734;-80
2023/05/15 00:45:10;;;;;;;;;;;;;;;13.46;99.52;98891.75;4460952;32;34024;-79
2023/05/15 00:47:38;;;;;;;;;;;;;;;13.98;95.93;98891.47;4461165;32;34003;-80
2023/05/15 00:50:09;;;;;;;;;;;;;;;13.85;95.74;98897.19;4467165;32;34354;-81
2023/05/15 00:52:37;;;;;;;;;;;;;;;14.36;91.91;98883.84;4460820;32;33595;-80
2023/05/15 00:55:06;;;;;;;;;;;;;;;14.11;93.21;98884.88;4460638;32;33996;-79
2023/05/15 00:57:35;;;;;;;;;;;;;;;13.97;94.25;98879.34;4462491;32;34258;-77
2023/05/15 01:00:06;;;;;;;;;;;;;;;13.93;93.92;98878.63;4475609;32;34708;-80
2023/05/15 01:02:37;;;;;;;;;;;;;;;14.06;93.49;98864.19;4461308;32;34537;-81
2023/05/15 01:05:10;;;;;;;;;;;;;;;14.11;92.57;98869.22;4461442;32;33640;-79
2023/05/15 01:07:41;;;;;;;;;;;;;;;13.91;93.99;98863.94;4450365;32;34891;-80
2023/05/15 01:10:10;;;;;;;;;;;;;;;13.69;96.76;98856.13;4462783;32;34682;-79
2023/05/15 01:12:39;;;;;;;;;;;;;;;13.45;98.98;98856.16;4466421;32;34129;-78
2023/05/15 01:15:09;;;;;;;;;;;;;;;13.30;100.00;98848.94;4460633;32;32569;-79
2023/05/15 01:17:37;;;;;;;;;;;;;;;13.23;100.00;98849.13;4465303;32;34430;-79
2023/05/15 01:20:08;;;;;;;;;;;;;;;13.63;99.37;98847.66;4462873;32;33975;-80
2023/05/15 01:22:44;;;;;;;;;;;;;;;13.12;100.00;98845.22;4467845;32;33780;-79
2023/05/15 01:25:23;;;;;;;;;;;;;;;13.41;100.00;98831.16;4467794;32;33114;-79
2023/05/15 01:27:54;;;;;;;;;;;;;;;13.43;100.00;98835.41;4461836;32;34194;-79
2023/05/15 01:30:25;;;;;;;;;;;;;;;13.47;99.87;98833.50;4466301;32;34543;-81
2023/05/15 01:32:55;;;;;;;;;;;;;;;13.76;99.58;98844.56;4468458;32;33878;-79
2023/05/15 01:35:25;;;;;;;;;;;;;;;13.94;96.93;98845.56;4462125;32;33136;-81
2023/05/15 01:37:55;;;;;;;;;;;;;;;13.54;98.49;98842.78;4454987;32;33777;-79
2023/05/15 01:40:23;;;;;;;;;;;;;;;13.31;100.00;98829.78;4461658;32;34703;-78
2023/05/15 01:42:53;;;;;;;;;;;;;;;13.93;97.37;98821.25;4461747;32;34310;-79
2023/05/15 01:45:24;;;;;;;;;;;;;;;14.00;95.53;98822.69;4463532;32;32425;-79
2023/05/15 01:47:53;;;;;;;;;;;;;;;14.00;95.97;98833.13;4467833;32;33210;-81
2023/05/15 01:50:22;;;;;;;;;;;;;;;14.06;94.28;98832.88;4460645;32;34107;-79
2023/05/15 01:52:51;;;;;;;;;;;;;;;14.32;93.47;98830.94;4459940;32;34324;-81
2023/05/15 01:55:20;;;;;;;;;;;;;;;13.83;96.36;98831.19;4460176;32;34410;-79
2023/05/15 01:57:51;;;;;;;;;;;;;;;13.82;97.26;98819.09;4462562;32;34033;-78
2023/05/15 02:00:20;;;;;;;;;;;;;;;13.90;95.97;98818.78;4471085;32;34395;-81
2023/05/15 02:02:51;;;;;;;;;;;;;;;13.92;96.82;98840.44;4461413;32;33158;-79
2023/05/15 02:05:19;;;;;;;;;;;;;;;14.59;90.45;98836.75;4461222;32;33516;-82
2023/05/15 02:07:48;;;;;;;;;;;;;;;14.36;91.50;98835.13;4456895;32;33704;-81
2023/05/15 02:10:16;;;;;;;;;;;;;;;14.67;89.19;98842.53;4466285;32;33793;-79
2023/05/15 02:12:47;;;;;;;;;;;;;;;14.83;89.33;98844.44;4460371;32;33624;-79
2023/05/15 02:15:15;;;;;;;;;;;;;;;14.97;88.32;98859.50;4460837;32;34154;-81
2023/05/15 02:17:43;;;;;;;;;;;;;;;15.07;87.95;98869.47;4461270;32;34623;-81
2023/05/15 02:20:14;;;;;;;;;;;;;;;15.20;86.67;98884.59;4466015;32;35243;-81
2023/05/15 02:22:43;;;;;;;;;;;;;;;15.21;86.52;98884.53;4460720;32;33718;-79
2023/05/15 02:25:11;;;;;;;;;;;;;;;15.15;86.75;98884.84;4460718;32;32845;-79
2023/05/15 02:27:43;;;;;;;;;;;;;;;15.12;86.28;98885.78;4464753;32;34289;-79
2023/05/15 02:30:15;;;;;;;;;;;;;;;15.08;85.87;98889.47;4472112;32;33652;-79
2023/05/15 02:32:47;;;;;;;;;;;;;;;15.18;86.57;98889.91;4467035;32;33419;-80
2023/05/15 02:35:19;;;;;;;;;;;;;;;15.17;85.62;98888.19;4459209;32;33359;-79
2023/05/15 02:37:48;;;;;;;;;;;;;;;15.32;85.50;98881.47;4460505;32;34551;-79
2023/05/15 02:40:16;;;;;;;;;;;;;;;15.24;85.84;98879.16;4460415;32;35037;-80
2023/05/15 02:42:45;;;;;;;;;;;;;;;15.05;85.83;98875.69;4466543;32;34920;-81
2023/05/15 02:45:16;;;;;;;;;;;;;;;15.08;85.83;98872.97;4460029;32;33454;-79
2023/05/15 02:47:44;;;;;;;;;;;;;;;15.21;85.57;98866.25;4460920;32;34129;-81
2023/05/15 02:50:13;;;;;;;;;;;;;;;15.40;83.92;98860.19;4470365;32;33958;-79
2023/05/15 02:52:43;;;;;;;;;;;;;;;15.25;85.17;98859.97;4467588;32;34353;-80
2023/05/15 02:55:11;;;;;;;;;;;;;;;15.34;85.23;98861.31;4468689;32;33331;-79
2023/05/15 02:57:40;;;;;;;;;;;;;;;15.33;85.24;98859.63;4476542;32;34256;-80
2023/05/15 03:00:10;;;;;;;;;;;;;;;15.13;85.42;98855.31;4477569;32;34252;-82
2023/05/15 03:02:39;;;;;;;;;;;;;;;15.05;86.50;98853.06;4477316;32;34618;-81
2023/05/15 03:05:08;;;;;;;;;;;;;;;15.25;85.74;98854.75;4483472;32;32916;-80
2023/05/15 03:07:37;;;;;;;;;;;;;;;15.39;84.67;98843.66;4476512;32;33813;-80
2023/05/15 03:10:08;;;;;;;;;;;;;;;15.41;84.94;98848.81;4458481;32;34256;-82
2023/05/15 03:12:36;;;;;;;;;;;;;;;15.44;84.64;98841.69;4461456;32;33832;-81
2023/05/15 03:15:06;;;;;;;;;;;;;;;14.94;85.94;98839.59;4466391;32;33854;-80
2023/05/15 03:17:34;;;;;;;;;;;;;;;14.96;86.66;98826.50;4461766;32;33945;-80
2023/05/15 03:20:03;;;;;;;;;;;;;;;14.67;87.51;98810.34;4465127;32;34760;-81
2023/05/15 03:22:32;;;;;;;;;;;;;;;14.26;90.96;98800.75;4462815;32;33457;-79
2023/05/15 03:25:01;;;;;;;;;;;;;;;14.19;91.40;98795.88;4470439;32;33377;-79
2023/05/15 03:27:31;;;;;;;;;;;;;;;14.56;88.98;98808.19;4451470;32;34637;-80
2023/05/15 03:30:00;;;;;;;;;;;;;;;14.73;87.78;98803.06;4454860;32;33897;-81
2023/05/15 03:32:28;;;;;;;;;;;;;;;14.66;87.66;98800.81;4461481;32;34643;-81
2023/05/15 03:34:56;;;;;;;;;;;;;;;13.95;93.09;98795.97;4461671;32;33593;-78
2023/05/15 03:37:25;;;;;;;;;;;;;;;14.23;91.73;98789.59;4467051;32;34595;-78
2023/05/15 03:39:53;;;;;;;;;;;;;;;14.82;88.12;98799.22;4459882;32;34117;-80
2023/05/15 03:42:23;;;;;;;;;;;;;;;15.14;85.61;98804.75;4459651;32;34293;-80
2023/05/15 03:44:54;;;;;;;;;;;;;;;14.79;86.83;98796.75;4461186;32;35290;-79
2023/05/15 03:47:23;;;;;;;;;;;;;;;14.46;89.46;98799.88;4465734;32;33513;-80
2023/05/15 03:49:52;;;;;;;;;;;;;;;14.72;87.86;98795.31;4464680;32;33982;-81
2023/05/15 03:52:20;;;;;;;;;;;;;;;14.48;89.51;98790.22;4460115;32;33163;-79
2023/05/15 03:54:49;;;;;;;;;;;;;;;14.35;90.81;98790.81;4458182;32;33031;-81
2023/05/15 03:57:18;;;;;;;;;;;;;;;14.51;90.58;98792.69;4458321;32;34040;-79
2023/05/15 03:59:46;;;;;;;;;;;;;;;14.92;87.59;98790.03;4466357;32;34700;-80
2023/05/15 04:02:16;;;;;;;;;;;;;;;14.67;88.82;98781.63;4463208;32;34783;-79
2023/05/15 04:04:45;;;;;;;;;;;;;;;14.83;87.72;98779.16;4461246;32;35242;-79
2023/05/15 04:07:13;;;;;;;;;;;;;;;14.49;90.45;98771.03;4459196;32;34027;-81
2023/05/15 04:09:42;;;;;;;;;;;;;;;14.30;91.96;98770.16;4464156;32;34730;-80
2023/05/15 04:12:10;;;;;;;;;;;;;;;14.32;92.65;98765.72;4460609;32;34014;-79
2023/05/15 04:14:38;;;;;;;;;;;;;;;14.46;91.06;98765.97;4461266;32;33858;-79
2023/05/15 04:17:07;;;;;;;;;;;;;;;14.88;88.94;98756.31;4459623;32;34969;-81
2023/05/15 04:19:37;;;;;;;;;;;;;;;14.91;88.61;98759.63;4466429;32;34012;-79
2023/05/15 04:22:08;;;;;;;;;;;;;;;15.03;87.68;98763.47;4465582;32;34555;-81
2023/05/15 04:24:36;;;;;;;;;;;;;;;15.04;87.81;98759.06;4459927;32;32854;-81
2023/05/15 04:27:05;;;;;;;;;;;;;;;14.91;88.07;98764.88;4459070;32;34560;-79
2023/05/15 04:29:34;;;;;;;;;;;;;;;14.90;89.69;98763.16;4458636;32;34010;-81
2023/05/15 04:32:02;;;;;;;;;;;;;;;15.39;85.84;98770.50;4467211;32;34963;-80
2023/05/15 04:34:31;;;;;;;;;;;;;;;15.41;86.07;98796.53;4460491;32;33469;-80
2023/05/15 04:37:01;;;;;;;;;;;;;;;15.51;85.92;98797.78;4461027;32;34481;-79
2023/05/15 04:39:30;;;;;;;;;;;;;;;15.59;85.55;98795.66;4463116;32;35184;-79
2023/05/15 04:41:58;;;;;;;;;;;;;;;15.62;84.13;98800.75;4466228;32;33756;-79
2023/05/15 04:44:26;;;;;;;;;;;;;;;15.62;84.78;98808.59;4460540;32;33346;-81
2023/05/15 04:46:55;;;;;;;;;;;;;;;15.63;84.99;98807.66;4460950;32;34401;-79
2023/05/15 04:49:23;;;;;;;;;;;;;;;15.79;84.07;98810.41;4459208;32;33947;-79
2023/05/15 04:51:52;;;;;;;;;;;;;;;15.82;83.74;98812.03;4459973;32;34709;-80
2023/05/15 04:54:22;;;;;;;;;;;;;;;15.70;84.60;98829.16;4465587;32;33377;-79
2023/05/15 04:56:50;;;;;;;;;;;;;;;15.75;84.80;98838.50;4460629;32;33853;-81
2023/05/15 04:59:18;;;;;;;;;;;;;;;15.78;84.72;98842.75;4460363;32;34335;-81
2023/05/15 05:01:47;;;;;;;;;;;;;;;16.02;81.29;98835.47;4460513;32;33697;-80
2023/05/15 05:04:18;;;;;;;;;;;;;;;15.93;82.64;98843.75;4466210;32;32982;-81
2023/05/15 05:06:46;;;;;;;;;;;;;;;15.69;83.89;98843.13;4459963;32;33934;-79
2023/05/15 05:09:15;;;;;;;;;;;;;;;15.85;82.95;98833.69;4463069;32;34039;-81
2023/05/15 05:11:44;;;;;;;;;;;;;;;15.75;84.08;98838.50;4458415;32;33883;-80
2023/05/15 05:14:13;;;;;;;;;;;;;;;15.83;83.12;98834.66;4469007;32;33984;-80
2023/05/15 05:16:42;;;;;;;;;;;;;;;16.14;79.30;98845.31;4467588;32;34412;-80
2023/05/15 05:19:10;;;;;;;;;;;;;;;15.94;80.72;98842.81;4475913;32;35254;-80
2023/05/15 05:21:39;;;;;;;;;;;;;;;15.94;79.86;98851.50;4466272;32;33719;-81
2023/05/15 05:24:07;;;;;;;;;;;;;;;15.67;81.91;98855.44;4459784;32;33533;-80
2023/05/15 05:26:36;;;;;;;;;;;;;;;15.64;82.54;98856.44;4465354;32;33931;-81
2023/05/15 05:29:05;;;;;;;;;;;;;;;15.91;80.75;98853.44;4459699;32;34964;-81
2023/05/15 05:31:34;;;;;;;;;;;;;;;15.75;81.43;98855.94;4459431;32;33682;-81
2023/05/15 05:34:02;;;;;;;;;;;;;;;15.71;81.90;98844.78;4459955;32;33565;-81
2023/05/15 05:36:31;;;;;;;;;;;;;;;15.69;82.31;98841.38;4465381;32;34400;-80
2023/05/15 05:38:59;;;;;;;;;;;;;;;15.43;85.58;98826.91;4463765;32;33964;-81
2023/05/15 05:41:27;;;;;;;;;;;;;;;15.65;84.97;98821.50;4461562;32;33557;-81
2023/05/15 05:43:56;;;;;;;;;;;;;;;15.72;85.52;98822.94;4463141;32;33467;-83
2023/05/15 05:46:26;;;;;;;;;;;;;;;16.03;83.33;98831.06;4460921;32;34175;-82
2023/05/15 05:48:54;;;;;;;;;;;;;;;16.13;81.99;98837.53;4464674;32;33867;-81
2023/05/15 05:51:23;;;;;;;;;;;;;;;15.88;84.60;98841.38;4458956;32;34205;-81
2023/05/15 05:53:51;;;;;;;;;;;;;;;16.25;81.16;98849.19;4452983;32;32690;-81
2023/05/15 05:56:20;;;;;;;;;;;;;;;16.04;82.85;98849.28;4467527;32;33471;-82
2023/05/15 05:58:48;;;;;;;;;;;;;;;15.89;85.40;98853.50;4466543;32;34514;-81
2023/05/15 06:01:17;;;;;;;;;;;;;;;16.20;83.76;98854.62;4460716;32;33971;-81
2023/05/15 06:03:47;;;;;;;;;;;;;;;16.31;83.41;98856.69;4461186;32;33815;-80
2023/05/15 06:06:16;;;;;;;;;;;;;;;16.32;83.40;98853.19;4457961;32;34763;-81
2023/05/15 06:08:44;;;;;;;;;;;;;;;16.58;83.61;98850.09;4459529;32;33667;-81
2023/05/15 06:11:13;;;;;;;;;;;;;;;16.67;85.13;98854.00;4460305;32;34472;-81
2023/05/15 06:13:42;;;;;;;;;;;;;;;16.83;84.95;98857.53;4459999;32;33161;-81
2023/05/15 06:16:10;;;;;;;;;;;;;;;17.12;83.04;98860.41;4460056;32;34313;-81
2023/05/15 06:18:39;;;;;;;;;;;;;;;17.20;84.02;98860.00;4460449;32;34221;-81
2023/05/15 06:21:09;;;;;;;;;;;;;;;17.39;82.90;98863.31;4465917;32;33765;-81
2023/05/15 06:23:37;;;;;;;;;;;;;;;17.43;79.60;98866.63;4455109;32;34176;-83
2023/05/15 06:26:06;;;;;;;;;;;;;;;17.56;78.28;98885.16;4446292;32;33928;-81
2023/05/15 06:28:34;;;;;;;;;;;;;;;17.32;79.40;98877.69;4461621;32;33595;-82
2023/05/15 06:31:02;;;;;;;;;;;;;;;17.38;77.87;98876.53;4466816;32;34744;-81
2023/05/15 06:33:31;;;;;;;;;;;;;;;17.27;77.59;98874.47;4461925;32;33234;-83
2023/05/15 06:36:00;;;;;;;;;;;;;;;17.35;76.89;98880.16;4461718;32;34816;-82
2023/05/15 06:38:29;;;;;;;;;;;;;;;17.09;78.22;98880.72;4462024;32;34532;-83
2023/05/15 06:40:58;;;;;;;;;;;;;;;17.23;76.91;98867.72;4466964;32;34172;-81
2023/05/15 06:43:26;;;;;;;;;;;;;;;16.88;78.50;98862.53;4461148;32;34082;-82
2023/05/15 06:45:55;;;;;;;;;;;;;;;17.12;78.80;98860.41;4461316;32;34116;-82
2023/05/15 06:48:23;;;;;;;;;;;;;;;17.54;77.63;98856.41;4461237;32;33946;-82
2023/05/15 06:50:52;;;;;;;;;;;;;;;17.81;75.51;98848.81;4460530;32;34075;-83
2023/05/15 06:53:20;;;;;;;;;;;;;;;18.12;71.99;98839.16;4467161;32;33672;-84
2023/05/15 06:55:51;;;;;;;;;;;;;;;17.58;75.39;98846.59;4462638;32;33615;-82
2023/05/15 06:58:19;;;;;;;;;;;;;;;18.06;72.75;98843.00;4464532;32;33682;-83
2023/05/15 07:00:47;;;;;;;;;;;;;;;18.10;72.44;98844.53;4460250;32;33805;-82
2023/05/15 07:03:16;;;;;;;;;;;;;;;18.24;72.29;98845.50;4466195;32;32904;-83
2023/05/15 07:05:44;;;;;;;;;;;;;;;18.28;71.43;98858.34;4460232;32;33494;-83
2023/05/15 07:08:13;;;;;;;;;;;;;;;18.27;72.06;98856.69;4460610;32;33815;-82
2023/05/15 07:10:41;;;;;;;;;;;;;;;18.35;71.88;98853.59;4460667;32;33791;-83
2023/05/15 07:13:11;;;;;;;;;;;;;;;18.31;71.09;98866.06;4473581;32;32865;-83
2023/05/15 07:15:40;;;;;;;;;;;;;;;18.54;70.31;98874.38;4466525;32;34575;-83
2023/05/15 07:18:08;;;;;;;;;;;;;;;18.43;71.03;98872.37;4461268;32;33416;-82
2023/05/15 07:20:37;;;;;;;;;;;;;;;18.42;69.51;98880.34;4460723;32;34162;-83
2023/05/15 07:23:06;;;;;;;;;;;;;;;17.97;72.88;98887.28;4460821;32;33694;-83
2023/05/15 07:25:34;;;;;;;;;;;;;;;18.20;72.20;98892.09;4466555;32;34500;-83
2023/05/15 07:28:03;;;;;;;;;;;;;;;18.32;69.26;98896.63;4461197;32;34153;-84
2023/05/15 07:30:32;;;;;;;;;;;;;;;17.76;73.30;98903.28;4461215;32;33075;-83
2023/05/15 07:33:02;;;;;;;;;;;;;;;18.23;70.07;98896.31;4461142;32;33220;-82
2023/05/15 07:35:30;;;;;;;;;;;;;;;18.17;70.95;98888.78;4466265;32;33981;-84
2023/05/15 07:37:58;;;;;;;;;;;;;;;18.15;69.53;98880.19;4450876;32;34673;-82
2023/05/15 07:40:27;;;;;;;;;;;;;;;17.99;72.42;98869.69;4459816;32;34505;-82
2023/05/15 07:42:56;;;;;;;;;;;;;;;18.32;71.30;98866.91;4460003;32;32564;-83
2023/05/15 07:45:24;;;;;;;;;;;;;;;18.50;71.87;98872.84;4461085;32;33715;-81
2023/05/15 07:47:54;;;;;;;;;;;;;;;18.67;69.69;98867.44;4466606;32;34557;-82
2023/05/15 07:50:23;;;;;;;;;;;;;;;18.38;70.54;98869.16;4461092;32;33567;-82
2023/05/15 07:52:52;;;;;;;;;;;;;;;18.40;71.40;98858.59;4460539;32;32763;-81
2023/05/15 07:55:20;;;;;;;;;;;;;;;18.42;71.37;98854.94;4459151;32;33662;-83
2023/05/15 07:57:49;;;;;;;;;;;;;;;18.71;71.79;98855.00;4465498;32;34117;-83
2023/05/15 08:00:21;;;;;;;;;;;;;;;18.80;70.44;98875.50;4459180;32;33456;-82
2023/05/15 08:02:50;;;;;;;;;;;;;;;18.90;70.08;98892.41;4458505;32;33899;-81
2023/05/15 08:05:20;;;;;;;;;;;;;;;19.08;70.10;98902.72;4466439;32;33984;-82
2023/05/15 08:07:48;;;;;;;;;;;;;;;19.03;70.62;98902.16;4475292;32;33911;-83
2023/05/15 08:10:17;;;;;;;;;;;;;;;19.17;68.23;98891.66;4462871;32;34247;-82
2023/05/15 08:12:46;;;;;;;;;;;;;;;19.33;68.23;98895.03;4458781;32;32758;-83
2023/05/15 08:15:15;;;;;;;;;;;;;;;19.54;67.99;98902.50;4461005;32;33581;-82
2023/05/15 08:17:43;;;;;;;;;;;;;;;19.50;66.84;98899.25;4462421;32;34795;-82
2023/05/15 08:20:12;;;;;;;;;;;;;;;19.57;67.62;98889.16;4466972;32;34708;-83
2023/05/15 08:22:46;;;;;;;;;;;;;;;19.55;68.62;98898.97;4460353;32;32804;-83
2023/05/15 08:25:15;;;;;;;;;;;;;;;19.66;66.72;98901.75;4460449;32;34118;-82
2023/05/15 08:27:43;;;;;;;;;;;;;;;19.70;67.79;98903.28;4460438;32;33653;-82
2023/05/15 08:30:13;;;;;;;;;;;;;;;19.85;65.15;98901.47;4466836;32;34994;-83
2023/05/15 08:32:42;;;;;;;;;;;;;;;19.87;66.74;98898.75;4460801;32;33262;-83
2023/05/15 08:35:11;;;;;;;;;;;;;;;20.00;65.79;98892.56;4461139;32;33772;-83
2023/05/15 08:37:39;;;;;;;;;;;;;;;20.00;63.48;98889.94;4460761;32;34203;-82
2023/05/15 08:40:09;;;;;;;;;;;;;;;20.19;64.19;98891.38;4464016;32;33550;-82
2023/05/15 08:42:40;;;;;;;;;;;;;;;20.14;64.09;98888.19;4481601;32;32630;-83
2023/05/15 08:45:09;;;;;;;;;;;;;;;20.31;64.51;98882.66;4476477;32;34462;-82
2023/05/15 08:47:39;;;;;;;;;;;;;;;20.42;62.48;98884.59;4477261;32;35016;-82
2023/05/15 08:50:09;;;;;;;;;;;;;;;20.52;62.67;98885.66;4473417;32;34929;-82
2023/05/15 08:52:39;;;;;;;;;;;;;;;20.38;60.94;98889.22;4472666;32;33401;-83
2023/05/15 08:55:10;;;;;;;;;;;;;;;20.26;63.04;98884.75;4460420;32;34469;-82
2023/05/15 08:57:39;;;;;;;;;;;;;;;20.25;61.67;98876.03;4460773;32;34774;-83
2023/05/15 09:00:08;;;;;;;;;;;;;;;20.45;61.84;98877.31;4460588;32;34046;-82
2023/05/15 09:02:37;;;;;;;;;;;;;;;20.27;60.43;98870.63;4460359;32;33923;-83
2023/05/15 09:05:07;;;;;;;;;;;;;;;20.10;60.59;98869.12;4465961;32;34673;-83
2023/05/15 09:07:35;;;;;;;;;;;;;;;19.74;62.93;98880.22;4460436;32;33683;-81
2023/05/15 09:10:04;;;;;;;;;;;;;;;19.97;63.50;98895.41;4459540;32;33477;-81
2023/05/15 09:12:35;;;;;;;;;;;;;;;19.95;63.35;98896.44;4459705;32;33093;-83
2023/05/15 09:15:09;;;;;;;;;;;;;;;20.21;60.91;98892.97;4468310;32;34041;-82
2023/05/15 09:17:38;;;;;;;;;;;;;;;19.93;62.73;98906.22;4455840;32;34006;-83
2023/05/15 09:20:07;;;;;;;;;;;;;;;19.99;64.24;98909.31;4460332;32;33950;-82
2023/05/15 09:22:36;;;;;;;;;;;;;;;19.96;63.88;98912.16;4459737;32;33924;-81
2023/05/15 09:25:05;;;;;;;;;;;;;;;20.17;61.46;98914.31;4460372;32;34955;-82
2023/05/15 09:27:42;;;;;;;;;;;;;;;20.28;59.49;98916.28;4464773;32;34939;-82
2023/05/15 09:30:11;;;;;;;;;;;;;;;19.82;60.11;98915.66;4459027;32;34216;-81
2023/05/15 09:32:39;;;;;;;;;;;;;;;19.88;61.91;98922.31;4459578;32;33156;-83
2023/05/15 09:35:23;;;;;;;;;;;;;;;19.74;62.49;98935.50;4459082;32;33597;-81
2023/05/15 09:37:58;;;;;;;;;;;;;;;19.72;63.47;98946.12;4458705;32;34320;-82
2023/05/15 09:40:28;;;;;;;;;;;;;;;19.53;63.42;98942.94;4466273;32;35038;-82
2023/05/15 09:42:58;;;;;;;;;;;;;;;19.22;65.04;98938.72;4459279;32;32366;-82
2023/05/15 09:45:28;;;;;;;;;;;;;;;19.21;65.19;98937.00;4459245;32;34105;-81
2023/05/15 09:47:59;;;;;;;;;;;;;;;19.25;64.39;98938.50;4459359;32;34913;-84
2023/05/15 09:50:32;;;;;;;;;;;;;;;19.33;64.64;98939.75;4464941;32;33233;-81
2023/05/15 09:53:01;;;;;;;;;;;;;;;19.29;63.14;98940.87;4459909;32;33916;-82
2023/05/15 09:55:31;;;;;;;;;;;;;;;18.92;64.54;98947.50;4459388;32;33980;-82
2023/05/15 09:58:08;;;;;;;;;;;;;;;18.91;65.02;98936.13;4459667;32;34250;-83
2023/05/15 10:00:37;;;;;;;;;;;;;;;18.99;65.07;98938.28;4459471;32;33976;-82
2023/05/15 10:03:17;;;;;;;;;;;;;;;19.24;63.69;98944.72;4465260;32;32966;-83
2023/05/15 10:05:45;;;;;;;;;;;;;;;19.27;63.25;98942.75;4460059;32;33748;-82
2023/05/15 10:08:14;;;;;;;;;;;;;;;19.52;63.93;98939.47;4461910;32;34218;-83
2023/05/15 10:10:43;;;;;;;;;;;;;;;19.79;61.90;98941.34;4458261;32;35323;-83
2023/05/15 10:13:13;;;;;;;;;;;;;;;19.74;61.15;98933.72;4442682;26;33913;-82
2023/05/15 10:15:41;;;;;;;;;;;;;;;19.68;61.74;98941.16;4436922;32;34927;-82
2023/05/15 10:18:10;;;;;;;;;;;;;;;19.87;60.91;98943.47;4428945;32;33865;-83
2023/05/15 10:20:39;;;;;;;;;;;;;;;19.90;60.20;98938.84;4428492;32;33388;-82
2023/05/15 10:23:07;;;;;;;;;;;;;;;19.72;60.16;98937.41;4428116;32;32731;-83
2023/05/15 10:25:39;;;;;;;;;;;;;;;19.89;60.25;98942.44;4433829;32;34419;-82
2023/05/15 10:28:08;;;;;;;;;;;;;;;19.87;60.61;98946.12;4431593;32;35096;-83
2023/05/15 10:30:38;;;;;;;;;;;;;;;19.78;61.50;98940.47;4428220;32;33725;-83
2023/05/15 10:33:07;;;;;;;;;;;;;;;19.93;61.78;98943.06;4427365;32;33386;-83
2023/05/15 10:35:36;;;;;;;;;;;;;;;20.13;61.26;98952.34;4433926;32;34041;-83
2023/05/15 10:38:05;;;;;;;;;;;;;;;19.91;61.15;98945.81;4426027;32;34436;-83
2023/05/15 10:40:33;;;;;;;;;;;;;;;19.82;61.04;98949.03;4431173;32;34220;-81
2023/05/15 10:43:02;;;;;;;;;;;;;;;19.72;60.13;98954.03;4428451;32;33270;-82
2023/05/15 10:45:30;;;;;;;;;;;;;;;19.62;61.62;98958.16;4428277;32;34275;-82
2023/05/15 10:48:00;;;;;;;;;;;;;;;19.78;61.72;98952.78;4434053;32;35118;-82
2023/05/15 10:50:28;;;;;;;;;;;;;;;20.30;59.84;98957.37;4428377;32;34704;-81
2023/05/15 10:52:58;;;;;;;;;;;;;;;20.30;60.53;98954.75;4428441;32;33873;-82
2023/05/15 10:55:27;;;;;;;;;;;;;;;20.49;57.89;98948.25;4427798;32;33615;-82
2023/05/15 10:57:55;;;;;;;;;;;;;;;20.34;57.83;98942.19;4432365;32;34565;-82
2023/05/15 11:00:24;;;;;;;;;;;;;;;20.29;60.08;98945.12;4429432;32;33944;-83
2023/05/15 11:02:55;;;;;;;;;;;;;;;20.54;59.33;98941.75;4427822;32;33423;-82
2023/05/15 11:05:26;;;;;;;;;;;;;;;20.58;60.20;98947.69;4428175;32;33296;-83
2023/05/15 11:08:13;;;;;;;;;;;;;;;20.54;58.13;98941.75;4430918;32;34266;-82
2023/05/15 11:10:42;;;;;;;;;;;;;;;20.33;58.84;98943.16;4433130;32;33871;-82
2023/05/15 11:13:10;;;;;;;;;;;;;;;20.13;58.38;98947.09;4427458;32;33575;-83
2023/05/15 11:15:42;;;;;;;;;;;;;;;19.83;58.72;98930.50;4428153;32;33883;-83
2023/05/15 11:18:11;;;;;;;;;;;;;;;20.03;58.85;98929.25;4428241;32;34200;-82
2023/05/15 11:20:41;;;;;;;;;;;;;;;20.28;57.94;98922.38;4433579;32;34010;-83
2023/05/15 11:23:10;;;;;;;;;;;;;;;20.19;58.22;98920.34;4428161;32;34203;-82
2023/05/15 11:25:38;;;;;;;;;;;;;;;19.97;60.43;98924.34;4428804;32;32996;-83
2023/05/15 11:28:13;;;;;;;;;;;;;;;19.78;60.43;98931.75;4429209;32;33777;-83
2023/05/15 11:30:42;;;;;;;;;;;;;;;19.85;60.84;98930.41;4428135;32;34279;-84
2023/05/15 11:33:11;;;;;;;;;;;;;;;20.06;59.63;98932.63;4435109;32;33049;-82
2023/05/15 11:35:42;;;;;;;;;;;;;;;20.09;59.50;98940.31;4428644;32;33848;-81
2023/05/15 11:38:11;;;;;;;;;;;;;;;20.08;58.93;98930.72;4430631;32;34859;-83
2023/05/15 11:40:43;;;;;;;;;;;;;;;20.30;58.11;98920.50;4429693;32;34257;-83
2023/05/15 11:43:19;;;;;;;;;;;;;;;20.65;58.32;98934.00;4434174;32;32945;-83
2023/05/15 11:45:48;;;;;;;;;;;;;;;20.45;59.58;98930.00;4434640;32;33598;-83
2023/05/15 11:48:17;;;;;;;;;;;;;;;20.81;58.93;98923.28;4430150;32;34734;-83
2023/05/15 11:50:52;;;;;;;;;;;;;;;20.71;56.68;98913.44;4429658;32;34637;-84
2023/05/15 11:53:21;;;;;;;;;;;;;;;20.61;56.65;98921.97;4428020;32;32978;-83
2023/05/15 11:55:51;;;;;;;;;;;;;;;20.46;57.53;98918.56;4433377;32;34495;-82
2023/05/15 11:58:21;;;;;;;;;;;;;;;20.20;57.32;98909.72;4427973;32;33458;-83
2023/05/15 12:00:50;;;;;;;;;;;;;;;20.72;56.51;98918.63;4427542;32;32381;-83
2023/05/15 12:03:23;;;;;;;;;;;;;;;20.57;56.09;98922.28;4427345;32;33016;-83
2023/05/15 12:05:53;;;;;;;;;;;;;;;21.10;54.75;98912.53;4423281;32;33458;-83
2023/05/15 12:08:31;;;;;;;;;;;;;;;20.65;53.98;98918.19;4431789;32;34121;-82
2023/05/15 12:10:59;;;;;;;;;;;;;;;20.62;55.85;98917.56;4398638;32;790261;-83
2023/05/15 12:13:28;;;;;;;;;;;;;;;20.92;54.37;98922.53;4424754;32;32975;-83
2023/05/15 12:15:56;;;;;;;;;;;;;;;20.91;54.76;98922.66;4429273;32;33556;-83
2023/05/15 12:18:25;;;;;;;;;;;;;;;21.02;54.27;98926.25;4433664;32;34882;-83
2023/05/15 12:20:55;;;;;;;;;;;;;;;21.00;53.95;98922.88;4429942;32;34393;-84
2023/05/15 12:23:23;;;;;;;;;;;;;;;20.75;55.13;98928.09;4431338;32;33492;-82
2023/05/15 12:25:57;;;;;;;;;;;;;;;20.74;55.50;98927.25;4431553;32;33659;-82
2023/05/15 12:28:25;;;;;;;;;;;;;;;20.88;54.53;98937.72;4429842;32;33861;-83
2023/05/15 12:30:54;;;;;;;;;;;;;;;20.60;55.14;98927.34;4433269;32;34123;-83
2023/05/15 12:33:22;;;;;;;;;;;;;;;20.54;55.52;98933.84;4425624;32;33150;-83
2023/05/15 12:35:53;;;;;;;;;;;;;;;20.84;55.47;98946.78;4427831;32;33520;-82
2023/05/15 12:38:28;;;;;;;;;;;;;;;20.88;53.88;98940.38;4428016;32;34304;-82
2023/05/15 12:40:57;;;;;;;;;;;;;;;20.88;54.45;98934.25;4432678;32;34494;-82
2023/05/15 12:43:26;;;;;;;;;;;;;;;20.86;55.42;98942.25;4428337;32;35428;-83
2023/05/15 12:45:54;;;;;;;;;;;;;;;21.03;54.07;98935.00;4425473;32;34240;-83
2023/05/15 12:48:23;;;;;;;;;;;;;;;21.05;52.20;98931.31;4426248;32;33974;-82
2023/05/15 12:50:52;;;;;;;;;;;;;;;21.07;51.88;98933.84;4429611;32;34104;-83
2023/05/15 12:53:21;;;;;;;;;;;;;;;21.04;52.54;98926.13;4435882;32;33415;-82
2023/05/15 12:55:50;;;;;;;;;;;;;;;21.11;52.62;98919.47;4427904;32;33876;-83